Surface/Precipitation History
03/22/2019 21:24  to  3/23/2019 21:24
Change End Date:
Date/Time
(MDT)
Sf
Temp Chem Water Layer Surface Precipitation
Sfc Pvt Sub Frz Factor Pct Dpth DpthThk IcePct Cond Salin FI Type Intens Accum Rate
03/23/2019 21:22 Wet 44.6F - 38F 32F 30 0% 8.10 in - 0% 1 mhos 57 - None None - -
03/23/2019 21:16 Wet 44.8F - 38F 32F 30 0% 9.50 in - 0% 1 mhos 57 - None None - -
03/23/2019 21:07 Wet 45.0F - 38F 32F 25 0% 0.10 in - 0% 1 mhos 51 - None None - -
03/23/2019 21:06 Wet 45.1F - 38F 32F 25 0% 0.10 in - 0% 1 mhos 50 - None None - -
03/23/2019 20:56 Wet 45.5F - 38F 32F 20 0% 0.10 in - 0% 0 mhos 2 - None None - -
03/23/2019 20:52 Wet 45.7F - 38F 32F 20 0% 0.10 in - 0% 0 mhos 2 - None None - -
03/23/2019 20:46 Wet 45.9F - 38F 32F 20 0% 0.10 in - 0% 0 mhos 2 - None None - -
03/23/2019 20:37 Wet 46.2F - 38F 32F 15 0% 0.10 in - 0% 0 mhos 37 - None None - -
03/23/2019 20:36 Wet 46.2F - 38F 32F 15 0% 0.10 in - 0% 0 mhos 37 - None None - -
03/23/2019 20:26 Wet 46.6F - 38F 32F 10 0% 9.50 in - 0% 1 mhos 56 - None None - -
03/23/2019 20:22 Wet 46.8F - 38F 32F 10 0% 9.50 in - 0% 1 mhos 56 - None None - -
03/23/2019 20:16 Wet 46.9F - 38F 32F 10 0% 9.50 in - 0% 1 mhos 55 - None None - -
03/23/2019 20:07 Wet 47.3F - 38F 32F 5 0% 9.50 in - 0% 1 mhos 55 - None None - -
03/23/2019 20:06 Wet 47.5F - 38F 32F 5 0% 8.10 in - 0% 1 mhos 55 - None None - -
03/23/2019 19:56 Wet 47.8F - 38F 32F 5 0% 8.10 in - 0% 1 mhos 55 - None None - -
Date/Time
(MDT)
Sf
Temp Chem Water Layer Surface Precipitation
Sfc Pvt Sub Frz Factor Pct Dpth DpthThk IcePct Cond Salin FI Type Intens Accum Rate
03/23/2019 19:52 Wet 48.0F - 38F 32F 5 0% - - 0% 1 mhos 55 - None None - -
03/23/2019 19:46 Wet 48.4F - 38F 32F 5 0% 9.50 in - 0% 1 mhos 55 - None None - -
03/23/2019 19:37 Wet 48.9F - 38F 32F 5 0% 0.00 in - 0% 0 mhos 14 - None None - -
03/23/2019 19:36 Wet 49.1F - 38F 32F 5 0% 0.00 in - 0% 0 mhos 13 - None None - -
03/23/2019 19:26 Wet 50.2F - 38F 32F 5 0% 9.50 in - 0% 1 mhos 54 - None None - -
03/23/2019 19:22 Wet 50.7F - 38F 32F 5 0% 9.50 in - 0% 1 mhos 53 - None None - -
03/23/2019 19:16 Wet 51.4F - 38F 32F 5 0% 9.50 in - 0% 1 mhos 53 - None None - -
03/23/2019 19:07 Wet 52.7F - 37F 32F 5 0% 9.50 in - 0% 1 mhos 52 - None None - -
03/23/2019 19:06 Wet 52.9F - 38F 32F 5 0% 9.50 in - 0% 1 mhos 52 - None None - -
03/23/2019 18:56 Wet 54.3F - 37F 32F 5 0% 9.50 in - 0% 1 mhos 51 - None None - -
03/23/2019 18:52 Wet 54.9F - 37F 32F 5 0% 0.00 in - 0% 0 mhos 7 - None None - -
03/23/2019 18:46 Wet 55.8F - 37F 32F 5 0% 9.50 in - 0% 1 mhos 51 - None None - -
03/23/2019 18:37 Wet 56.8F - 37F 32F 5 0% 9.50 in - 0% 1 mhos 50 - None None - -
03/23/2019 18:36 Wet 57.0F - 37F 32F 5 0% 9.50 in - 0% 1 mhos 50 - None None - -
03/23/2019 18:26 Wet 58.6F - 37F 32F 5 0% 9.50 in - 0% 1 mhos 49 - None None - -
Date/Time
(MDT)
Sf
Temp Chem Water Layer Surface Precipitation
Sfc Pvt Sub Frz Factor Pct Dpth DpthThk IcePct Cond Salin FI Type Intens Accum Rate
03/23/2019 18:22 Wet 59.4F - 37F 32F 5 0% 9.50 in - 0% 1 mhos 49 - None None - -
03/23/2019 18:16 Wet 59.9F - 37F 32F 5 0% 9.50 in - 0% 1 mhos 48 - None None - -
03/23/2019 18:07 Wet 60.1F - 37F 32F 5 0% 9.50 in - 0% 1 mhos 48 - None None - -
03/23/2019 18:05 Wet 60.1F - 37F 32F 5 0% 9.50 in - 0% 1 mhos 48 - None None - -
03/23/2019 17:55 Wet 61.0F - 37F 32F 5 0% 9.50 in - 0% 1 mhos 48 - None None - -
03/23/2019 17:52 Wet 61.3F - 37F 32F 5 0% 9.50 in - 0% 1 mhos 48 - None None - -
03/23/2019 17:45 Wet 61.2F - 37F 32F 5 0% 9.50 in - 0% 1 mhos 48 - None None - -
03/23/2019 17:37 Wet 61.2F - 37F 32F 5 0% 9.50 in - 0% 1 mhos 48 - None None - -
03/23/2019 17:35 Wet 61.3F - 37F 32F 5 0% 9.50 in - 0% 1 mhos 48 - None None - -
03/23/2019 17:25 Wet 62.1F - 37F 32F 5 0% 9.50 in - 0% 1 mhos 47 - None None - -
03/23/2019 17:22 Wet 62.1F - 37F 32F 5 0% 9.50 in - 0% 1 mhos 47 - None None - -
03/23/2019 17:15 Wet 62.2F - 37F 32F 5 0% 9.50 in - 0% 1 mhos 47 - None None - -
03/23/2019 17:07 Wet 62.2F - 37F 32F 5 0% 8.10 in - 0% 1 mhos 47 - None None - -
03/23/2019 17:05 Wet 62.2F - 37F 32F 5 0% 8.10 in - 0% 1 mhos 47 - None None - -
03/23/2019 16:55 Wet 62.6F - 37F 32F 5 0% 9.50 in - 0% 1 mhos 47 - None None - -
Date/Time
(MDT)
Sf
Temp Chem Water Layer Surface Precipitation
Sfc Pvt Sub Frz Factor Pct Dpth DpthThk IcePct Cond Salin FI Type Intens Accum Rate
03/23/2019 16:52 Wet 63.0F - 37F 32F 5 0% 9.50 in - 0% 1 mhos 47 - None None - -
03/23/2019 16:45 Wet 63.5F - 37F 32F 5 0% 0.00 in - 0% 0 mhos 0 - None None - -
03/23/2019 16:37 Wet 64.6F - 37F 32F 5 0% 9.50 in - 0% 1 mhos 46 - None None - -
03/23/2019 16:35 Wet 64.8F - 37F 32F 5 0% 9.50 in - 0% 1 mhos 46 - None None - -
03/23/2019 16:25 Wet 65.8F - 37F 32F 5 0% 9.50 in - 0% 1 mhos 46 - None None - -
03/23/2019 16:22 Wet 66.4F - 37F 32F 5 0% 8.10 in - 0% 1 mhos 45 - None None - -
03/23/2019 16:15 Wet 66.7F - 37F 32F 5 0% 9.50 in - 0% 1 mhos 45 - None None - -
03/23/2019 16:07 Wet 67.1F - 37F 32F 5 0% 9.50 in - 0% 1 mhos 45 - None None - -
03/23/2019 16:05 Wet 67.5F - 37F 32F 5 0% 9.50 in - 0% 1 mhos 45 - None None - -
03/23/2019 15:55 Wet 68.0F - 37F 32F 5 0% 9.50 in - 0% 1 mhos 45 - None None - -
03/23/2019 15:52 Wet 68.7F - 37F 32F 5 0% 8.10 in - 0% 1 mhos 45 - None None - -
03/23/2019 15:45 Wet 68.7F - 37F 32F 5 0% 8.10 in - 0% 1 mhos 45 - None None - -
03/23/2019 15:37 Wet 71.1F - 37F 32F 5 0% 9.50 in - 0% 1 mhos 44 - None None - -
03/23/2019 15:35 Wet 71.1F - 37F 32F 5 0% 8.10 in - 0% 1 mhos 44 - None None - -
03/23/2019 15:25 Wet 71.2F - 37F 32F 5 0% 9.50 in - 0% 1 mhos 44 - None None - -
Date/Time
(MDT)
Sf
Temp Chem Water Layer Surface Precipitation
Sfc Pvt Sub Frz Factor Pct Dpth DpthThk IcePct Cond Salin FI Type Intens Accum Rate
03/23/2019 15:22 Wet 71.1F - 37F 32F 15 0% 9.50 in - 0% 1 mhos 44 - None None - -
03/23/2019 15:15 Wet 68.7F - 37F 32F 10 0% 9.50 in - 0% 1 mhos 45 - None None - -
03/23/2019 15:07 Wet 68.4F - 37F 32F 5 0% 9.50 in - 0% 1 mhos 45 - None None - -
03/23/2019 15:05 Wet 68.0F - 37F 32F 5 0% 9.50 in - 0% 1 mhos 45 - None None - -
03/23/2019 14:54 Wet 68.0F - 37F 32F 5 0% 9.50 in - 0% 1 mhos 45 - None None - -
03/23/2019 14:52 Wet 68.4F - 37F 32F 5 0% - - 0% 1 mhos 44 - None None - -
03/23/2019 14:44 Wet 68.5F - 37F 32F 5 0% - - 0% 1 mhos 44 - None None - -
03/23/2019 14:37 Wet 68.9F - 37F 32F 5 0% 9.50 in - 0% 1 mhos 44 - None None - -
03/23/2019 14:34 Wet 69.1F - 37F 32F 5 0% 9.50 in - 0% 1 mhos 44 - None None - -
03/23/2019 14:24 Wet 69.3F - 37F 32F 5 0% 8.10 in - 0% 1 mhos 44 - None None - -
03/23/2019 14:22 Wet 69.3F - 37F 32F 5 0% 9.50 in - 0% 1 mhos 44 - None None - -
03/23/2019 14:14 Wet 69.6F - 37F 32F 5 0% 9.50 in - 0% 1 mhos 44 - None None - -
03/23/2019 14:07 Wet 69.4F - 37F 32F 5 0% 0.00 in - 0% 0 mhos 0 - None None - -
03/23/2019 14:04 Wet 69.6F - 37F 32F 5 0% 0.00 in - 0% 0 mhos 0 - None None - -
03/23/2019 13:54 Wet 69.6F - 37F 32F 5 0% 0.00 in - 0% 0 mhos 0 - None None - -
Date/Time
(MDT)
Sf
Temp Chem Water Layer Surface Precipitation
Sfc Pvt Sub Frz Factor Pct Dpth DpthThk IcePct Cond Salin FI Type Intens Accum Rate
03/23/2019 13:52 Wet 69.8F - 37F 32F 5 0% 0.00 in - 0% 0 mhos 15 - None None - -
03/23/2019 13:44 Wet 69.4F - 37F 32F 5 0% 0.00 in - 0% 0 mhos 0 - None None - -
03/23/2019 13:37 Wet 68.9F - 37F 32F 5 0% 0.00 in - 0% 0 mhos 0 - None None - -
03/23/2019 13:34 Wet 68.9F - 37F 32F 5 0% 0.00 in - 0% 0 mhos 0 - None None - -
03/23/2019 13:24 Wet 67.8F - 37F 32F 5 0% 9.50 in - 0% 1 mhos 45 - None None - -
03/23/2019 13:22 Wet 67.5F - 37F 32F 5 0% 9.50 in - 0% 1 mhos 45 - None None - -
03/23/2019 13:14 Wet 65.7F - 37F 32F 5 0% 9.50 in - 0% 1 mhos 46 - None None - -
03/23/2019 13:07 Wet 64.4F - 37F 32F 5 0% 9.50 in - 0% 1 mhos 46 - None None - -
03/23/2019 13:04 Wet 64.4F - 37F 32F 5 0% 9.50 in - 0% 1 mhos 46 - None None - -
03/23/2019 12:54 Wet 64.6F - 37F 32F 5 0% 9.50 in - 0% 1 mhos 46 - None None - -
03/23/2019 12:52 Wet 64.6F - 37F 32F 5 0% 9.50 in - 0% 1 mhos 46 - None None - -
03/23/2019 12:44 Wet 64.6F - 37F 32F 5 0% 0.00 in - 0% 0 mhos 0 - None None - -
03/23/2019 12:37 Wet 64.8F - 37F 32F 5 0% 8.10 in - 0% 1 mhos 46 - None None - -
03/23/2019 12:34 Wet 64.9F - 37F 32F 5 0% 9.50 in - 0% 1 mhos 46 - None None - -
03/23/2019 12:24 Wet 64.6F - 37F 32F 5 0% 8.10 in - 0% 1 mhos 46 - None None - -
Date/Time
(MDT)
Sf
Temp Chem Water Layer Surface Precipitation
Sfc Pvt Sub Frz Factor Pct Dpth DpthThk IcePct Cond Salin FI Type Intens Accum Rate
03/23/2019 12:22 Wet 64.6F - 37F 32F 5 0% 9.50 in - 0% 1 mhos 46 - None None - -
03/23/2019 12:14 Wet 64.9F - 37F 32F 5 0% 9.50 in - 0% 1 mhos 46 - None None - -
03/23/2019 12:07 Wet 65.1F - 37F 32F 5 0% 9.50 in - 0% 1 mhos 46 - None None - -
03/23/2019 12:04 Wet 64.9F - 37F 32F 5 0% 9.50 in - 0% 1 mhos 46 - None None - -
03/23/2019 11:54 Wet 64.6F - 37F 32F 5 0% 9.50 in - 0% 1 mhos 46 - None None - -
03/23/2019 11:52 Wet 64.2F - 37F 32F 5 0% 9.50 in - 0% 1 mhos 46 - None None - -
03/23/2019 11:43 Wet 63.0F - 37F 32F 5 0% 9.50 in - 0% 1 mhos 47 - None None - -
03/23/2019 11:37 Wet 62.6F - 37F 32F 5 0% 9.50 in - 0% 1 mhos 47 - None None - -
03/23/2019 11:33 Wet 62.6F - 37F 32F 5 0% 9.50 in - 0% 1 mhos 47 - None None - -
03/23/2019 11:23 Wet 63.3F - 37F 32F 5 0% 9.50 in - 0% 1 mhos 47 - None None - -
03/23/2019 11:22 Wet 63.0F - 37F 32F 5 0% 9.50 in - 0% 1 mhos 47 - None None - -
03/23/2019 11:13 Wet 60.6F - 37F 32F 5 0% 9.50 in - 0% 1 mhos 48 - None None - -
03/23/2019 11:07 Wet 60.3F - 38F 32F 5 0% 9.50 in - 0% 1 mhos 48 - None None - -
03/23/2019 11:03 Wet 60.3F - 38F 32F 5 0% 8.10 in - 0% 1 mhos 48 - None None - -
03/23/2019 10:53 Wet 55.9F - 38F 32F 5 0% 9.50 in - 0% 1 mhos 50 - None None - -
Date/Time
(MDT)
Sf
Temp Chem Water Layer Surface Precipitation
Sfc Pvt Sub Frz Factor Pct Dpth DpthThk IcePct Cond Salin FI Type Intens Accum Rate
03/23/2019 10:52 Wet 55.8F - 38F 32F 5 0% 8.10 in - 0% 1 mhos 51 - None None - -
03/23/2019 10:43 Wet 55.2F - 38F 32F 5 0% 0.00 in - 0% 1 mhos 42 - None None - -
03/23/2019 10:37 Wet 55.9F - 38F 32F 5 0% 0.00 in - 0% 1 mhos 54 - None None - -
03/23/2019 10:33 Wet 54.3F - 38F 32F 5 0% 0.00 in - 0% 1 mhos 61 - None None - -
03/23/2019 10:23 Wet 53.1F - 38F 32F 5 0% 0.00 in - 0% 1 mhos 80 - None None - -
03/23/2019 10:22 Wet 53.1F - 38F 32F 5 0% 0.00 in - 0% 1 mhos 81 - None None - -
03/23/2019 10:13 Wet 52.7F - 38F 32F 5 0% 8.10 in - 0% 1 mhos 52 - None None - -
03/23/2019 10:07 Wet 53.1F - 38F 32F 5 0% 0.00 in - 0% 2 mhos 124 - None None - -
03/23/2019 10:03 Wet 53.1F - 38F 32F 5 0% 0.00 in - 0% 2 mhos 142 - None None - -
03/23/2019 09:53 Wet 53.8F - 38F 32F 5 0% 9.50 in - 0% 1 mhos 51 - None None - -
03/23/2019 09:52 Wet 54.1F - 38F 32F 5 0% 9.50 in - 0% 1 mhos 51 - None None - -
03/23/2019 09:43 Wet 52.3F - 38F 32F 15 1% 0.00 in - 0% 4 mhos 290 - None None - -
03/23/2019 09:37 Wet 50.2F - 38F 32F 20 1% 0.00 in - 0% 2 mhos 199 - None None - -
03/23/2019 09:33 Wet 49.6F - 38F 32F 25 1% 0.00 in - 0% 5 mhos 373 - None None - -
03/23/2019 09:23 Wet 47.7F - 38F 32F 30 1% 0.00 in - 0% 5 mhos 448 - None None - -
Date/Time
(MDT)
Sf
Temp Chem Water Layer Surface Precipitation
Sfc Pvt Sub Frz Factor Pct Dpth DpthThk IcePct Cond Salin FI Type Intens Accum Rate
03/23/2019 09:22 Wet 47.7F - 38F 32F 30 2% 0.00 in - 0% 6 mhos 461 - None None - -
03/23/2019 09:13 Wet 46.0F - 38F 31F 35 2% 0.00 in - 0% 7 mhos 574 - None None - -
03/23/2019 09:07 Wet 45.1F - 38F 31F 40 2% 0.00 in - 0% 8 mhos 679 - None None - -
03/23/2019 09:03 Wet 45.0F - 38F 31F 40 2% 0.00 in - 0% 9 mhos 745 - None None - -
03/23/2019 08:53 Wet 43.9F - 38F 31F 45 3% 0.00 in - 0% 9 mhos 832 - None None - -
03/23/2019 08:52 Wet 43.9F - 38F 31F 50 3% 0.00 in - 0% 10 mhos 877 - None None - -
03/23/2019 08:43 Wet 42.4F - 38F 31F 60 4% 0.00 in - 0% 12 mhos 1066 - None None - -
03/23/2019 08:37 Wet 41.0F - 38F 31F 65 4% 0.00 in - 0% 12 mhos 1087 - None None - -
03/23/2019 08:32 Wet 40.1F - 38F 31F 70 4% 0.00 in - 0% 12 mhos 1098 - None None - -
03/23/2019 08:22 Wet 38.5F - 38F 31F 75 4% 0.00 in - 0% 12 mhos 1122 - None None - -
03/23/2019 08:22 Wet 38.3F - 38F 31F 75 4% 0.00 in - 0% 13 mhos 1204 - None None - -
03/23/2019 08:12 Wet 37.4F - 38F 31F 75 4% 0.00 in - 0% 12 mhos 1136 - None None - -
03/23/2019 08:07 Wet 37.0F - 38F 31F 75 4% 0.00 in - 0% 11 mhos 1073 - None None - -
03/23/2019 08:02 Wet 36.7F - 38F 31F 75 4% 0.00 in - 0% 12 mhos 1148 - None None - -
03/23/2019 07:52 Wet 36.1F - 38F 31F 75 4% 0.00 in - 0% 12 mhos 1158 - None None - -
Date/Time
(MDT)
Sf
Temp Chem Water Layer Surface Precipitation
Sfc Pvt Sub Frz Factor Pct Dpth DpthThk IcePct Cond Salin FI Type Intens Accum Rate
03/23/2019 07:52 Wet 36.0F - 38F 31F 75 4% 0.00 in - 0% 12 mhos 1161 - None None - -
03/23/2019 07:42 Wet 35.4F - 38F 31F 75 4% 0.00 in - 0% 12 mhos 1168 - None None - -
03/23/2019 07:37 Wet 35.2F - 38F 31F 75 4% 0.00 in - 0% 12 mhos 1171 - None None - -
03/23/2019 07:32 Wet 35.1F - 38F 31F 75 4% 0.00 in - 0% 13 mhos 1256 - None None - -
03/23/2019 07:22 Wet 34.9F - 38F 31F 75 3% 0.00 in - 0% 10 mhos 1042 - None None - -
03/23/2019 07:22 Wet 34.9F - 38F 31F 75 4% 0.00 in - 0% 12 mhos 1179 - None None - -
03/23/2019 07:12 Wet 34.9F - 38F 31F 75 4% 0.00 in - 0% 11 mhos 1106 - None None - -
03/23/2019 07:07 Wet 34.9F - 38F 31F 75 4% 0.00 in - 0% 12 mhos 1179 - None None - -
03/23/2019 07:02 Wet 34.9F - 38F 31F 75 3% 0.00 in - 0% 10 mhos 1042 - None None - -
03/23/2019 06:52 Wet 34.9F - 38F 31F 75 3% 0.00 in - 0% 10 mhos 1040 - None None - -
03/23/2019 06:52 Wet 34.9F - 38F 31F 75 3% 0.00 in - 0% 10 mhos 1040 - None None - -
03/23/2019 06:42 Wet 35.2F - 38F 31F 75 4% 0.00 in - 0% 12 mhos 1171 - None None - -
03/23/2019 06:37 Wet 35.2F - 38F 31F 75 4% 0.00 in - 0% 11 mhos 1098 - None None - -
03/23/2019 06:32 Wet 35.2F - 38F 31F 75 4% 0.00 in - 0% 11 mhos 1098 - None None - -
03/23/2019 06:22 Wet 35.4F - 38F 31F 75 4% 0.00 in - 0% 12 mhos 1168 - None None - -
Date/Time
(MDT)
Sf
Temp Chem Water Layer Surface Precipitation
Sfc Pvt Sub Frz Factor Pct Dpth DpthThk IcePct Cond Salin FI Type Intens Accum Rate
03/23/2019 06:22 Wet 35.2F - 38F 31F 75 4% 0.00 in - 0% 12 mhos 1171 - None None - -
03/23/2019 06:12 Wet 35.2F - 38F 31F 75 3% 0.00 in - 0% 10 mhos 1035 - None None - -
03/23/2019 06:07 Wet 35.2F - 38F 31F 75 4% 0.00 in - 0% 11 mhos 1098 - None None - -
03/23/2019 06:02 Wet 35.1F - 38F 31F 75 4% 0.00 in - 0% 11 mhos 1101 - None None - -
03/23/2019 05:52 Wet 34.9F - 38F 31F 75 4% 0.00 in - 0% 11 mhos 1103 - None None - -
03/23/2019 05:52 Wet 34.9F - 38F 31F 75 3% 0.00 in - 0% 10 mhos 982 - None None - -
03/23/2019 05:42 Wet 34.9F - 38F 31F 75 3% 0.00 in - 0% 10 mhos 985 - None None - -
03/23/2019 05:37 Wet 34.9F - 38F 31F 75 4% 0.00 in - 0% 11 mhos 1103 - None None - -
03/23/2019 05:32 Wet 34.9F - 38F 31F 75 4% 0.00 in - 0% 11 mhos 1106 - None None - -
03/23/2019 05:22 Wet 34.9F - 38F 31F 75 3% 0.00 in - 0% 10 mhos 984 - None None - -
03/23/2019 05:22 Wet 34.9F - 38F 31F 75 3% 0.00 in - 0% 10 mhos 982 - None None - -
03/23/2019 05:11 Wet 34.9F - 38F 31F 75 4% 0.00 in - 0% 11 mhos 1103 - None None - -
03/23/2019 05:07 Wet 34.9F - 39F 31F 75 4% 0.00 in - 0% 11 mhos 1103 - None None - -
03/23/2019 05:01 Wet 34.9F - 39F 31F 75 3% 0.00 in - 0% 10 mhos 982 - None None - -
03/23/2019 04:52 Wet 34.9F - 39F 31F 70 3% 0.00 in - 0% 10 mhos 1042 - None None - -
Date/Time
(MDT)
Sf
Temp Chem Water Layer Surface Precipitation
Sfc Pvt Sub Frz Factor Pct Dpth DpthThk IcePct Cond Salin FI Type Intens Accum Rate
03/23/2019 04:51 Wet 34.9F - 39F 31F 75 4% 0.00 in - 0% 11 mhos 1106 - None None - -
03/23/2019 04:41 Wet 34.9F - 39F 31F 70 3% 0.00 in - 0% 10 mhos 1042 - None None - -
03/23/2019 04:37 Wet 34.9F - 39F 31F 75 3% 0.00 in - 0% 10 mhos 985 - None None - -
03/23/2019 04:31 Wet 34.9F - 39F 31F 70 3% 0.00 in - 0% 10 mhos 1042 - None None - -
03/23/2019 04:22 Wet 34.9F - 39F 31F 70 3% 0.00 in - 0% 10 mhos 1042 - None None - -
03/23/2019 04:21 Wet 34.9F - 39F 31F 75 3% 0.00 in - 0% 10 mhos 1042 - None None - -
03/23/2019 04:11 Wet 34.9F - 39F 32F 70 0% 9.50 in - 0% 1 mhos 64 - None None - -
03/23/2019 04:07 Wet 34.9F - 39F 32F 70 0% 9.50 in - 0% 1 mhos 64 - None None - -
03/23/2019 04:01 Wet 34.7F - 39F 32F 70 0% 9.50 in - 0% 1 mhos 65 - None None - -
03/23/2019 03:52 Wet 34.7F - 39F 32F 70 0% 9.50 in - 0% 1 mhos 65 - None None - -
03/23/2019 03:51 Wet 34.9F - 39F 32F 70 0% 9.50 in - 0% 1 mhos 64 - None None - -
03/23/2019 03:41 Wet 34.9F - 39F 32F 70 0% 9.50 in - 0% 1 mhos 64 - None None - -
03/23/2019 03:37 Wet 34.9F - 39F 32F 70 0% 9.50 in - 0% 1 mhos 64 - None None - -
03/23/2019 03:31 Wet 35.1F - 39F 32F 70 0% 9.50 in - 0% 1 mhos 64 - None None - -
03/23/2019 03:22 Wet 35.2F - 39F 32F 70 0% 9.40 in - 0% 0 mhos 46 - None None - -
Date/Time
(MDT)
Sf
Temp Chem Water Layer Surface Precipitation
Sfc Pvt Sub Frz Factor Pct Dpth DpthThk IcePct Cond Salin FI Type Intens Accum Rate
03/23/2019 03:21 Wet 35.2F - 39F 32F 70 0% 9.40 in - 0% 0 mhos 46 - None None - -
03/23/2019 03:11 Wet 35.6F - 39F 32F 70 0% 3.20 in - 0% 1 mhos 63 - None None - -
03/23/2019 03:07 Wet 35.8F - 39F 32F 70 0% 6.30 in - 0% 1 mhos 64 - None None - -
03/23/2019 03:01 Wet 36.0F - 39F 32F 70 0% - - 0% 1 mhos 61 - None None - -
03/23/2019 02:52 Wet 36.1F - 39F 32F 70 0% 0.00 in - 0% 1 mhos 49 - None None - -
03/23/2019 02:51 Wet 36.1F - 39F 32F 70 0% 0.60 in - 0% 1 mhos 65 - None None - -
03/23/2019 02:41 Wet 36.3F - 39F 32F 70 0% 6.80 in - 0% 1 mhos 49 - None None - -
03/23/2019 02:37 Wet 36.5F - 39F 32F 65 0% 0.00 in - 0% 1 mhos 49 - None None - -
03/23/2019 02:31 Wet 36.5F - 39F 32F 70 0% 0.00 in - 0% 1 mhos 50 - None None - -
03/23/2019 02:22 Wet 36.5F - 39F 32F 70 0% 9.40 in - 0% 0 mhos 45 - None None - -
03/23/2019 02:21 Wet 36.5F - 39F 32F 65 0% 7.60 in - 0% 0 mhos 45 - None None - -
03/23/2019 02:11 Wet 36.3F - 39F 32F 65 0% 8.40 in - 0% 0 mhos 45 - None None - -
03/23/2019 02:07 Wet 36.3F - 39F 32F 65 0% 9.40 in - 0% 0 mhos 45 - None None - -
03/23/2019 02:00 Wet 36.3F - 39F 32F 65 0% 0.00 in - 0% 1 mhos 49 - None None - -
03/23/2019 01:52 Wet 36.3F - 39F 32F 65 0% 0.00 in - 0% 1 mhos 62 - None None - -
Date/Time
(MDT)
Sf
Temp Chem Water Layer Surface Precipitation
Sfc Pvt Sub Frz Factor Pct Dpth DpthThk IcePct Cond Salin FI Type Intens Accum Rate
03/23/2019 01:50 Wet 36.3F - 39F 32F 65 0% 0.00 in - 0% 1 mhos 60 - None None - -
03/23/2019 01:40 Wet 36.5F - 39F 32F 65 0% 0.00 in - 0% 1 mhos 58 - None None - -
03/23/2019 01:37 Wet 36.5F - 39F 32F 65 0% 0.00 in - 0% 1 mhos 57 - None None - -
03/23/2019 01:30 Wet 36.7F - 39F 32F 65 0% 0.00 in - 0% 1 mhos 56 - None None - -
03/23/2019 01:22 Wet 36.9F - 39F 32F 60 0% 0.00 in - 0% 1 mhos 55 - None None - -
03/23/2019 01:20 Wet 36.9F - 39F 32F 60 0% 0.00 in - 0% 1 mhos 55 - None None - -
03/23/2019 01:10 Wet 37.2F - 39F 31F 60 2% 0.00 in - 0% 7 mhos 689 - None None - -
03/23/2019 01:07 Wet 37.4F - 39F 31F 60 2% 0.00 in - 0% 7 mhos 637 - None None - -
03/23/2019 01:00 Wet 37.4F - 39F 31F 60 2% 0.00 in - 0% 7 mhos 660 - None None - -
03/23/2019 00:52 Wet 37.8F - 38F 31F 60 2% 0.00 in - 0% 7 mhos 633 - None None - -
03/23/2019 00:50 Wet 37.8F - 39F 31F 60 2% 0.00 in - 0% 7 mhos 633 - None None - -
03/23/2019 00:40 Trace Moisture 38.1F - 38F - 60 - - - - 6 mhos 608 - None None - -
03/23/2019 00:37 Trace Moisture 38.1F - 38F - 60 - - - - 6 mhos 587 - None None - -
03/23/2019 00:30 Trace Moisture 38.3F - 38F - 55 - - - - 6 mhos 586 - None None - -
03/23/2019 00:22 Trace Moisture 38.5F - 38F - 55 - - - - 6 mhos 530 - None None - -
Date/Time
(MDT)
Sf
Temp Chem Water Layer Surface Precipitation
Sfc Pvt Sub Frz Factor Pct Dpth DpthThk IcePct Cond Salin FI Type Intens Accum Rate
03/23/2019 00:20 Trace Moisture 38.7F - 38F - 55 - - - - 6 mhos 513 - None None - -
03/23/2019 00:10 Trace Moisture 38.8F - 38F - 55 - - - - 1 mhos 61 - None None - -
03/23/2019 00:07 Trace Moisture 39.0F - 38F - 55 - - - - 1 mhos 61 - None None - -
03/23/2019 00:00 Trace Moisture 39.2F - 38F - 55 - - - - 1 mhos 61 - None None - -
03/22/2019 23:52 Trace Moisture 39.0F - 38F - 50 - - - - 1 mhos 61 - None None - -
03/22/2019 23:50 Trace Moisture 39.2F - 38F - 50 - - - - 1 mhos 61 - None None - -
03/22/2019 23:40 Trace Moisture 39.4F - 38F - 45 - - - - 1 mhos 61 - None None - -
03/22/2019 23:37 Trace Moisture 39.6F - 38F - 45 - - - - 1 mhos 61 - None None - -
03/22/2019 23:30 Trace Moisture 39.9F - 38F - 50 - - - - 1 mhos 60 - None None - -
03/22/2019 23:22 Trace Moisture 39.9F - 38F - 45 - - - - 1 mhos 60 - None None - -
03/22/2019 23:20 Trace Moisture 40.1F - 38F - 50 - - - - 1 mhos 60 - None None - -
03/22/2019 23:10 Trace Moisture 40.5F - 38F - 45 - - - - 1 mhos 60 - None None - -
03/22/2019 23:07 Trace Moisture 40.5F - 38F - 45 - - - - 1 mhos 60 - None None - -
03/22/2019 23:00 Trace Moisture 40.8F - 38F - 45 - - - - 1 mhos 60 - None None - -
03/22/2019 22:52 Trace Moisture 41.2F - 38F - 45 - - - - 1 mhos 59 - None None - -
Date/Time
(MDT)
Sf
Temp Chem Water Layer Surface Precipitation
Sfc Pvt Sub Frz Factor Pct Dpth DpthThk IcePct Cond Salin FI Type Intens Accum Rate
03/22/2019 22:49 Trace Moisture 41.4F - 38F - 45 - - - - 1 mhos 59 - None None - -
03/22/2019 22:39 Trace Moisture 41.9F - 38F - 45 - - - - 1 mhos 59 - None None - -
03/22/2019 22:37 Trace Moisture 42.1F - 38F - 45 - - - - 1 mhos 59 - None None - -
03/22/2019 22:29 Trace Moisture 42.3F - 38F - 45 - - - - 1 mhos 59 - None None - -
03/22/2019 22:22 Trace Moisture 42.4F - 38F - 45 - - - - 1 mhos 58 - None None - -
03/22/2019 22:19 Trace Moisture 42.8F - 38F - 45 - - - - 1 mhos 58 - None None - -
03/22/2019 22:09 Trace Moisture 43.0F - 38F - 40 - - - - 1 mhos 58 - None None - -
03/22/2019 22:07 Trace Moisture 43.0F - 38F - 40 - - - - 1 mhos 58 - None None - -
03/22/2019 21:59 Trace Moisture 43.3F - 38F - 40 - - - - 1 mhos 58 - None None - -
03/22/2019 21:52 Trace Moisture 43.7F - 38F - 35 - - - - 1 mhos 58 - None None - -
03/22/2019 21:49 Trace Moisture 43.7F - 38F - 35 - - - - 1 mhos 58 - None None - -
03/22/2019 21:39 Trace Moisture 43.9F - 38F - 25 - - - - 1 mhos 57 - None None - -
03/22/2019 21:37 Trace Moisture 43.9F - 38F - 25 - - - - 1 mhos 57 - None None - -
03/22/2019 21:29 Trace Moisture 44.1F - 38F - 20 - - - - 1 mhos 57 - None None - -
Change End Date:

Copyright © 1998-2015 Vaisala, Inc.
All Rights Reserved
Send comments about the data to:
SCAN Web ® is a registered trademark of Vaisala, Inc.
SCAN Web Version 6.0